sensor_id;sensor_type;location;lat;lon;timestamp;P1;durP1;ratioP1;P2;durP2;ratioP2
4857;SDS011;58975;51.978;8.472;2024-03-17T00:04:09;7.88;;;4.22;;
4857;SDS011;58975;51.978;8.472;2024-03-17T00:09:05;8.45;;;3.42;;
4857;SDS011;58975;51.978;8.472;2024-03-17T00:14:01;10.20;;;4.13;;
4857;SDS011;58975;51.978;8.472;2024-03-17T00:18:57;7.60;;;3.88;;
4857;SDS011;58975;51.978;8.472;2024-03-17T00:23:53;11.93;;;3.63;;
4857;SDS011;58975;51.978;8.472;2024-03-17T00:28:48;7.57;;;4.20;;
4857;SDS011;58975;51.978;8.472;2024-03-17T00:33:46;6.63;;;3.65;;
4857;SDS011;58975;51.978;8.472;2024-03-17T00:38:41;5.53;;;3.38;;
4857;SDS011;58975;51.978;8.472;2024-03-17T00:43:37;7.18;;;3.53;;
4857;SDS011;58975;51.978;8.472;2024-03-17T00:48:32;8.77;;;3.70;;
4857;SDS011;58975;51.978;8.472;2024-03-17T00:53:28;9.35;;;4.10;;
4857;SDS011;58975;51.978;8.472;2024-03-17T00:58:24;8.93;;;4.63;;
4857;SDS011;58975;51.978;8.472;2024-03-17T01:03:20;11.48;;;5.53;;
4857;SDS011;58975;51.978;8.472;2024-03-17T01:08:16;10.00;;;4.40;;
4857;SDS011;58975;51.978;8.472;2024-03-17T01:13:12;11.18;;;4.25;;
4857;SDS011;58975;51.978;8.472;2024-03-17T01:18:07;11.98;;;4.47;;
4857;SDS011;58975;51.978;8.472;2024-03-17T01:23:04;9.63;;;4.00;;
4857;SDS011;58975;51.978;8.472;2024-03-17T01:28:00;10.65;;;4.55;;
4857;SDS011;58975;51.978;8.472;2024-03-17T01:32:55;8.15;;;4.63;;
4857;SDS011;58975;51.978;8.472;2024-03-17T01:37:51;7.85;;;4.00;;
4857;SDS011;58975;51.978;8.472;2024-03-17T01:42:46;9.25;;;5.25;;
4857;SDS011;58975;51.978;8.472;2024-03-17T01:47:42;6.45;;;3.97;;
4857;SDS011;58975;51.978;8.472;2024-03-17T01:52:38;8.65;;;4.80;;
4857;SDS011;58975;51.978;8.472;2024-03-17T01:57:34;8.75;;;3.97;;
4857;SDS011;58975;51.978;8.472;2024-03-17T02:02:29;5.18;;;3.50;;
4857;SDS011;58975;51.978;8.472;2024-03-17T02:07:25;7.38;;;3.65;;
4857;SDS011;58975;51.978;8.472;2024-03-17T02:12:21;12.07;;;5.18;;
4857;SDS011;58975;51.978;8.472;2024-03-17T02:17:16;9.93;;;4.70;;
4857;SDS011;58975;51.978;8.472;2024-03-17T02:22:15;9.00;;;5.10;;
4857;SDS011;58975;51.978;8.472;2024-03-17T02:27:12;12.55;;;4.47;;
4857;SDS011;58975;51.978;8.472;2024-03-17T02:32:08;9.02;;;5.20;;
4857;SDS011;58975;51.978;8.472;2024-03-17T02:37:04;7.43;;;5.40;;
4857;SDS011;58975;51.978;8.472;2024-03-17T02:42:05;8.77;;;4.57;;
4857;SDS011;58975;51.978;8.472;2024-03-17T02:47:02;7.80;;;4.68;;
4857;SDS011;58975;51.978;8.472;2024-03-17T02:51:59;12.50;;;4.35;;
4857;SDS011;58975;51.978;8.472;2024-03-17T02:56:54;6.43;;;3.67;;
4857;SDS011;58975;51.978;8.472;2024-03-17T03:01:52;4.25;;;3.33;;
4857;SDS011;58975;51.978;8.472;2024-03-17T03:06:47;6.55;;;4.03;;
4857;SDS011;58975;51.978;8.472;2024-03-17T03:11:47;6.63;;;3.15;;
4857;SDS011;58975;51.978;8.472;2024-03-17T03:16:43;4.95;;;3.38;;
4857;SDS011;58975;51.978;8.472;2024-03-17T03:21:38;8.85;;;4.03;;
4857;SDS011;58975;51.978;8.472;2024-03-17T03:26:34;8.27;;;4.05;;
4857;SDS011;58975;51.978;8.472;2024-03-17T03:31:32;7.68;;;3.72;;
4857;SDS011;58975;51.978;8.472;2024-03-17T03:36:28;5.85;;;3.50;;
4857;SDS011;58975;51.978;8.472;2024-03-17T03:41:24;5.38;;;2.95;;
4857;SDS011;58975;51.978;8.472;2024-03-17T03:46:20;8.27;;;4.25;;
4857;SDS011;58975;51.978;8.472;2024-03-17T03:51:16;8.10;;;3.80;;
4857;SDS011;58975;51.978;8.472;2024-03-17T03:56:11;7.82;;;3.22;;
4857;SDS011;58975;51.978;8.472;2024-03-17T04:01:07;9.90;;;3.60;;
4857;SDS011;58975;51.978;8.472;2024-03-17T04:06:08;7.78;;;3.70;;
4857;SDS011;58975;51.978;8.472;2024-03-17T04:11:06;4.82;;;3.22;;
4857;SDS011;58975;51.978;8.472;2024-03-17T04:16:06;5.05;;;3.05;;
4857;SDS011;58975;51.978;8.472;2024-03-17T04:21:02;8.90;;;3.95;;
4857;SDS011;58975;51.978;8.472;2024-03-17T04:26:00;9.95;;;3.72;;
4857;SDS011;58975;51.978;8.472;2024-03-17T04:31:03;8.60;;;3.90;;
4857;SDS011;58975;51.978;8.472;2024-03-17T04:35:59;6.63;;;3.47;;
4857;SDS011;58975;51.978;8.472;2024-03-17T04:40:57;3.87;;;2.53;;
4857;SDS011;58975;51.978;8.472;2024-03-17T04:46:02;6.70;;;3.75;;
4857;SDS011;58975;51.978;8.472;2024-03-17T04:50:59;5.18;;;3.30;;
4857;SDS011;58975;51.978;8.472;2024-03-17T04:56:02;8.57;;;3.17;;
4857;SDS011;58975;51.978;8.472;2024-03-17T05:01:03;6.30;;;3.55;;
4857;SDS011;58975;51.978;8.472;2024-03-17T05:06:03;5.18;;;2.88;;
4857;SDS011;58975;51.978;8.472;2024-03-17T05:11:00;5.53;;;3.08;;
4857;SDS011;58975;51.978;8.472;2024-03-17T05:16:01;5.70;;;3.13;;
4857;SDS011;58975;51.978;8.472;2024-03-17T05:20:59;7.60;;;3.60;;
4857;SDS011;58975;51.978;8.472;2024-03-17T05:25:55;5.93;;;3.78;;
4857;SDS011;58975;51.978;8.472;2024-03-17T05:30:51;8.50;;;3.45;;
4857;SDS011;58975;51.978;8.472;2024-03-17T05:40:59;6.72;;;3.03;;
4857;SDS011;58975;51.978;8.472;2024-03-17T05:45:57;8.93;;;3.60;;
4857;SDS011;58975;51.978;8.472;2024-03-17T05:50:53;6.97;;;3.40;;
4857;SDS011;58975;51.978;8.472;2024-03-17T05:55:49;6.65;;;3.72;;
4857;SDS011;58975;51.978;8.472;2024-03-17T06:00:45;5.10;;;3.33;;
4857;SDS011;58975;51.978;8.472;2024-03-17T06:05:41;11.00;;;4.43;;
4857;SDS011;58975;51.978;8.472;2024-03-17T06:10:37;8.15;;;4.20;;
4857;SDS011;58975;51.978;8.472;2024-03-17T06:15:37;8.45;;;4.57;;
4857;SDS011;58975;51.978;8.472;2024-03-17T06:20:34;8.95;;;4.22;;
4857;SDS011;58975;51.978;8.472;2024-03-17T06:25:30;7.65;;;4.60;;
4857;SDS011;58975;51.978;8.472;2024-03-17T06:30:25;9.73;;;4.85;;
4857;SDS011;58975;51.978;8.472;2024-03-17T06:35:21;10.60;;;4.50;;
4857;SDS011;58975;51.978;8.472;2024-03-17T06:40:20;8.13;;;4.10;;
4857;SDS011;58975;51.978;8.472;2024-03-17T06:45:16;6.75;;;4.22;;
4857;SDS011;58975;51.978;8.472;2024-03-17T06:50:15;9.25;;;4.60;;
4857;SDS011;58975;51.978;8.472;2024-03-17T06:55:11;11.15;;;4.40;;
4857;SDS011;58975;51.978;8.472;2024-03-17T07:00:07;8.65;;;5.03;;
4857;SDS011;58975;51.978;8.472;2024-03-17T07:05:12;13.75;;;4.97;;
4857;SDS011;58975;51.978;8.472;2024-03-17T07:10:11;7.88;;;4.65;;
4857;SDS011;58975;51.978;8.472;2024-03-17T07:15:07;6.93;;;3.85;;
4857;SDS011;58975;51.978;8.472;2024-03-17T07:20:04;10.95;;;4.75;;
4857;SDS011;58975;51.978;8.472;2024-03-17T07:25:03;7.35;;;4.45;;
4857;SDS011;58975;51.978;8.472;2024-03-17T07:29:59;12.38;;;5.63;;
4857;SDS011;58975;51.978;8.472;2024-03-17T07:34:54;9.02;;;4.22;;
4857;SDS011;58975;51.978;8.472;2024-03-17T07:39:50;11.18;;;5.10;;
4857;SDS011;58975;51.978;8.472;2024-03-17T07:44:45;7.85;;;4.68;;
4857;SDS011;58975;51.978;8.472;2024-03-17T07:49:41;14.35;;;5.13;;
4857;SDS011;58975;51.978;8.472;2024-03-17T07:54:37;11.73;;;6.07;;
4857;SDS011;58975;51.978;8.472;2024-03-17T07:59:32;13.43;;;5.75;;
4857;SDS011;58975;51.978;8.472;2024-03-17T08:04:28;11.02;;;6.00;;
4857;SDS011;58975;51.978;8.472;2024-03-17T08:09:23;8.57;;;5.03;;
4857;SDS011;58975;51.978;8.472;2024-03-17T08:14:19;9.20;;;5.68;;
4857;SDS011;58975;51.978;8.472;2024-03-17T08:19:14;10.80;;;5.30;;
4857;SDS011;58975;51.978;8.472;2024-03-17T08:24:09;10.40;;;5.50;;
4857;SDS011;58975;51.978;8.472;2024-03-17T08:29:05;11.15;;;6.18;;
4857;SDS011;58975;51.978;8.472;2024-03-17T08:34:01;11.80;;;5.88;;
4857;SDS011;58975;51.978;8.472;2024-03-17T08:38:57;10.80;;;5.97;;
4857;SDS011;58975;51.978;8.472;2024-03-17T08:43:53;14.13;;;6.35;;
4857;SDS011;58975;51.978;8.472;2024-03-17T08:48:49;13.23;;;6.60;;
4857;SDS011;58975;51.978;8.472;2024-03-17T08:53:45;14.60;;;6.63;;
4857;SDS011;58975;51.978;8.472;2024-03-17T08:58:40;10.50;;;6.15;;
4857;SDS011;58975;51.978;8.472;2024-03-17T09:03:36;8.77;;;6.22;;
4857;SDS011;58975;51.978;8.472;2024-03-17T09:08:31;9.52;;;5.63;;
4857;SDS011;58975;51.978;8.472;2024-03-17T09:13:28;11.30;;;4.95;;
4857;SDS011;58975;51.978;8.472;2024-03-17T09:18:24;9.77;;;5.50;;
4857;SDS011;58975;51.978;8.472;2024-03-17T09:23:19;8.95;;;5.00;;
4857;SDS011;58975;51.978;8.472;2024-03-17T09:28:17;9.23;;;5.63;;
4857;SDS011;58975;51.978;8.472;2024-03-17T09:33:13;12.95;;;5.28;;
4857;SDS011;58975;51.978;8.472;2024-03-17T09:38:08;10.68;;;5.82;;
4857;SDS011;58975;51.978;8.472;2024-03-17T09:43:03;11.45;;;6.38;;
4857;SDS011;58975;51.978;8.472;2024-03-17T09:47:59;13.90;;;6.80;;
4857;SDS011;58975;51.978;8.472;2024-03-17T09:52:54;11.38;;;5.43;;
4857;SDS011;58975;51.978;8.472;2024-03-17T09:57:50;13.40;;;6.28;;
4857;SDS011;58975;51.978;8.472;2024-03-17T10:02:46;12.95;;;6.25;;
4857;SDS011;58975;51.978;8.472;2024-03-17T10:07:43;12.27;;;6.85;;
4857;SDS011;58975;51.978;8.472;2024-03-17T10:12:38;10.75;;;5.55;;
4857;SDS011;58975;51.978;8.472;2024-03-17T10:17:34;11.57;;;6.00;;
4857;SDS011;58975;51.978;8.472;2024-03-17T10:22:30;12.20;;;5.50;;
4857;SDS011;58975;51.978;8.472;2024-03-17T10:27:26;8.70;;;5.88;;
4857;SDS011;58975;51.978;8.472;2024-03-17T10:32:21;10.70;;;5.80;;
4857;SDS011;58975;51.978;8.472;2024-03-17T10:37:20;8.82;;;5.03;;
4857;SDS011;58975;51.978;8.472;2024-03-17T10:42:24;8.88;;;5.18;;
4857;SDS011;58975;51.978;8.472;2024-03-17T10:47:24;8.85;;;5.63;;
4857;SDS011;58975;51.978;8.472;2024-03-17T10:52:22;8.55;;;5.20;;
4857;SDS011;58975;51.978;8.472;2024-03-17T10:57:31;11.63;;;6.28;;
4857;SDS011;58975;51.978;8.472;2024-03-17T11:02:34;14.07;;;6.15;;
4857;SDS011;58975;51.978;8.472;2024-03-17T11:07:31;9.80;;;5.95;;
4857;SDS011;58975;51.978;8.472;2024-03-17T11:17:40;9.10;;;6.10;;
4857;SDS011;58975;51.978;8.472;2024-03-17T11:22:43;10.77;;;6.80;;
4857;SDS011;58975;51.978;8.472;2024-03-17T11:27:44;8.27;;;5.68;;
4857;SDS011;58975;51.978;8.472;2024-03-17T11:32:39;8.65;;;6.00;;
4857;SDS011;58975;51.978;8.472;2024-03-17T11:37:41;12.20;;;7.15;;
4857;SDS011;58975;51.978;8.472;2024-03-17T11:42:38;7.25;;;4.72;;
4857;SDS011;58975;51.978;8.472;2024-03-17T11:48:01;7.90;;;5.25;;
4857;SDS011;58975;51.978;8.472;2024-03-17T11:52:59;12.45;;;6.10;;
4857;SDS011;58975;51.978;8.472;2024-03-17T11:57:55;7.28;;;4.88;;
4857;SDS011;58975;51.978;8.472;2024-03-17T12:02:51;6.60;;;4.82;;
4857;SDS011;58975;51.978;8.472;2024-03-17T12:07:47;7.07;;;4.97;;
4857;SDS011;58975;51.978;8.472;2024-03-17T12:12:46;8.65;;;4.75;;
4857;SDS011;58975;51.978;8.472;2024-03-17T12:17:42;10.18;;;5.70;;
4857;SDS011;58975;51.978;8.472;2024-03-17T12:22:38;6.95;;;4.47;;
4857;SDS011;58975;51.978;8.472;2024-03-17T12:27:34;8.63;;;5.47;;
4857;SDS011;58975;51.978;8.472;2024-03-17T12:32:30;9.68;;;5.97;;
4857;SDS011;58975;51.978;8.472;2024-03-17T12:37:26;11.77;;;6.18;;
4857;SDS011;58975;51.978;8.472;2024-03-17T12:42:29;12.25;;;6.95;;
4857;SDS011;58975;51.978;8.472;2024-03-17T12:47:27;10.63;;;7.13;;
4857;SDS011;58975;51.978;8.472;2024-03-17T12:52:25;10.35;;;6.20;;
4857;SDS011;58975;51.978;8.472;2024-03-17T12:57:22;13.43;;;5.93;;
4857;SDS011;58975;51.978;8.472;2024-03-17T13:02:43;11.15;;;6.15;;
4857;SDS011;58975;51.978;8.472;2024-03-17T13:07:39;10.27;;;6.72;;
4857;SDS011;58975;51.978;8.472;2024-03-17T13:12:34;10.10;;;5.55;;
4857;SDS011;58975;51.978;8.472;2024-03-17T13:17:30;12.98;;;6.72;;
4857;SDS011;58975;51.978;8.472;2024-03-17T13:22:28;10.85;;;5.72;;
4857;SDS011;58975;51.978;8.472;2024-03-17T13:27:24;8.60;;;5.95;;
4857;SDS011;58975;51.978;8.472;2024-03-17T13:32:19;8.63;;;5.68;;
4857;SDS011;58975;51.978;8.472;2024-03-17T13:37:15;9.60;;;5.63;;
4857;SDS011;58975;51.978;8.472;2024-03-17T13:42:10;8.50;;;5.40;;
4857;SDS011;58975;51.978;8.472;2024-03-17T13:47:06;8.88;;;5.60;;
4857;SDS011;58975;51.978;8.472;2024-03-17T13:52:02;8.70;;;5.32;;
4857;SDS011;58975;51.978;8.472;2024-03-17T13:56:59;7.80;;;4.85;;
4857;SDS011;58975;51.978;8.472;2024-03-17T14:01:57;8.23;;;5.53;;
4857;SDS011;58975;51.978;8.472;2024-03-17T14:06:52;10.10;;;5.78;;
4857;SDS011;58975;51.978;8.472;2024-03-17T14:11:48;8.95;;;4.90;;
4857;SDS011;58975;51.978;8.472;2024-03-17T14:16:45;10.80;;;5.78;;
4857;SDS011;58975;51.978;8.472;2024-03-17T14:21:41;7.25;;;4.80;;
4857;SDS011;58975;51.978;8.472;2024-03-17T14:26:36;8.75;;;4.32;;
4857;SDS011;58975;51.978;8.472;2024-03-17T14:31:32;8.40;;;4.60;;
4857;SDS011;58975;51.978;8.472;2024-03-17T14:36:31;6.38;;;4.95;;
4857;SDS011;58975;51.978;8.472;2024-03-17T14:41:28;7.37;;;3.90;;
4857;SDS011;58975;51.978;8.472;2024-03-17T14:46:25;7.25;;;4.95;;
4857;SDS011;58975;51.978;8.472;2024-03-17T14:51:21;9.00;;;5.00;;
4857;SDS011;58975;51.978;8.472;2024-03-17T14:56:16;8.85;;;4.57;;
4857;SDS011;58975;51.978;8.472;2024-03-17T15:01:13;6.03;;;4.70;;
4857;SDS011;58975;51.978;8.472;2024-03-17T15:06:09;7.35;;;4.50;;
4857;SDS011;58975;51.978;8.472;2024-03-17T15:11:07;7.30;;;4.30;;
4857;SDS011;58975;51.978;8.472;2024-03-17T15:16:05;5.70;;;4.30;;
4857;SDS011;58975;51.978;8.472;2024-03-17T15:21:01;6.97;;;4.13;;
4857;SDS011;58975;51.978;8.472;2024-03-17T15:30:55;7.70;;;3.92;;
4857;SDS011;58975;51.978;8.472;2024-03-17T15:35:55;5.70;;;4.15;;
4857;SDS011;58975;51.978;8.472;2024-03-17T15:40:50;12.57;;;4.07;;
4857;SDS011;58975;51.978;8.472;2024-03-17T15:45:46;5.07;;;4.03;;
4857;SDS011;58975;51.978;8.472;2024-03-17T15:50:42;6.38;;;3.70;;
4857;SDS011;58975;51.978;8.472;2024-03-17T15:55:38;6.82;;;4.80;;
4857;SDS011;58975;51.978;8.472;2024-03-17T16:00:33;7.07;;;4.25;;
4857;SDS011;58975;51.978;8.472;2024-03-17T16:05:30;7.50;;;4.45;;
4857;SDS011;58975;51.978;8.472;2024-03-17T16:10:26;10.23;;;4.78;;
4857;SDS011;58975;51.978;8.472;2024-03-17T16:15:24;4.60;;;3.17;;
4857;SDS011;58975;51.978;8.472;2024-03-17T16:20:33;7.05;;;4.63;;
4857;SDS011;58975;51.978;8.472;2024-03-17T16:25:51;10.52;;;4.10;;
4857;SDS011;58975;51.978;8.472;2024-03-17T16:30:56;9.18;;;3.67;;
4857;SDS011;58975;51.978;8.472;2024-03-17T16:35:53;6.32;;;3.95;;
4857;SDS011;58975;51.978;8.472;2024-03-17T16:40:49;8.13;;;4.28;;
4857;SDS011;58975;51.978;8.472;2024-03-17T16:45:46;5.32;;;3.65;;
4857;SDS011;58975;51.978;8.472;2024-03-17T16:50:55;6.72;;;4.47;;
4857;SDS011;58975;51.978;8.472;2024-03-17T16:55:51;9.27;;;5.18;;
4857;SDS011;58975;51.978;8.472;2024-03-17T17:00:47;6.63;;;4.63;;
4857;SDS011;58975;51.978;8.472;2024-03-17T17:05:42;7.22;;;4.70;;
4857;SDS011;58975;51.978;8.472;2024-03-17T17:10:38;12.00;;;5.10;;
4857;SDS011;58975;51.978;8.472;2024-03-17T17:15:34;5.63;;;4.05;;
4857;SDS011;58975;51.978;8.472;2024-03-17T17:20:29;8.52;;;4.60;;
4857;SDS011;58975;51.978;8.472;2024-03-17T17:25:28;7.32;;;5.00;;
4857;SDS011;58975;51.978;8.472;2024-03-17T17:30:24;6.97;;;4.85;;
4857;SDS011;58975;51.978;8.472;2024-03-17T17:35:21;7.85;;;5.28;;
4857;SDS011;58975;51.978;8.472;2024-03-17T17:40:16;10.05;;;5.45;;
4857;SDS011;58975;51.978;8.472;2024-03-17T17:45:12;9.98;;;4.90;;
4857;SDS011;58975;51.978;8.472;2024-03-17T17:50:08;13.30;;;5.90;;
4857;SDS011;58975;51.978;8.472;2024-03-17T17:55:04;8.25;;;5.57;;
4857;SDS011;58975;51.978;8.472;2024-03-17T18:00:00;10.35;;;5.60;;
4857;SDS011;58975;51.978;8.472;2024-03-17T18:04:55;12.75;;;5.70;;
4857;SDS011;58975;51.978;8.472;2024-03-17T18:09:51;7.97;;;5.43;;
4857;SDS011;58975;51.978;8.472;2024-03-17T18:14:46;8.00;;;5.25;;
4857;SDS011;58975;51.978;8.472;2024-03-17T18:19:42;10.02;;;5.45;;
4857;SDS011;58975;51.978;8.472;2024-03-17T18:24:38;7.78;;;6.10;;
4857;SDS011;58975;51.978;8.472;2024-03-17T18:29:35;12.35;;;6.13;;
4857;SDS011;58975;51.978;8.472;2024-03-17T18:34:30;10.18;;;5.60;;
4857;SDS011;58975;51.978;8.472;2024-03-17T18:39:26;9.95;;;5.82;;
4857;SDS011;58975;51.978;8.472;2024-03-17T18:44:21;9.60;;;6.15;;
4857;SDS011;58975;51.978;8.472;2024-03-17T18:49:17;14.43;;;6.35;;
4857;SDS011;58975;51.978;8.472;2024-03-17T18:54:12;9.63;;;6.00;;
4857;SDS011;58975;51.978;8.472;2024-03-17T18:59:09;10.90;;;6.65;;
4857;SDS011;58975;51.978;8.472;2024-03-17T19:04:06;11.63;;;6.63;;
4857;SDS011;58975;51.978;8.472;2024-03-17T19:09:02;10.07;;;6.15;;
4857;SDS011;58975;51.978;8.472;2024-03-17T19:14:03;9.32;;;6.10;;
4857;SDS011;58975;51.978;8.472;2024-03-17T19:19:00;11.37;;;6.60;;
4857;SDS011;58975;51.978;8.472;2024-03-17T19:23:56;10.98;;;6.68;;
4857;SDS011;58975;51.978;8.472;2024-03-17T19:28:52;13.15;;;6.32;;
4857;SDS011;58975;51.978;8.472;2024-03-17T19:33:51;11.35;;;6.28;;
4857;SDS011;58975;51.978;8.472;2024-03-17T19:38:46;10.68;;;6.22;;
4857;SDS011;58975;51.978;8.472;2024-03-17T19:43:45;10.70;;;6.55;;
4857;SDS011;58975;51.978;8.472;2024-03-17T19:53:41;11.63;;;6.93;;
4857;SDS011;58975;51.978;8.472;2024-03-17T19:58:38;9.63;;;5.97;;
4857;SDS011;58975;51.978;8.472;2024-03-17T20:03:34;18.55;;;9.52;;
4857;SDS011;58975;51.978;8.472;2024-03-17T20:08:31;12.13;;;6.15;;
4857;SDS011;58975;51.978;8.472;2024-03-17T20:13:27;9.80;;;7.28;;
4857;SDS011;58975;51.978;8.472;2024-03-17T20:18:23;14.73;;;7.32;;
4857;SDS011;58975;51.978;8.472;2024-03-17T20:23:20;13.57;;;6.10;;
4857;SDS011;58975;51.978;8.472;2024-03-17T20:28:15;9.43;;;6.35;;
4857;SDS011;58975;51.978;8.472;2024-03-17T20:33:11;11.05;;;5.82;;
4857;SDS011;58975;51.978;8.472;2024-03-17T20:38:06;8.52;;;6.07;;
4857;SDS011;58975;51.978;8.472;2024-03-17T20:43:02;10.05;;;5.78;;
4857;SDS011;58975;51.978;8.472;2024-03-17T20:47:58;8.07;;;5.70;;
4857;SDS011;58975;51.978;8.472;2024-03-17T20:52:54;14.07;;;6.70;;
4857;SDS011;58975;51.978;8.472;2024-03-17T20:57:50;9.40;;;5.90;;
4857;SDS011;58975;51.978;8.472;2024-03-17T21:02:46;10.70;;;6.00;;
4857;SDS011;58975;51.978;8.472;2024-03-17T21:07:43;10.55;;;5.93;;
4857;SDS011;58975;51.978;8.472;2024-03-17T21:12:39;9.88;;;6.03;;
4857;SDS011;58975;51.978;8.472;2024-03-17T21:17:35;9.77;;;5.55;;
4857;SDS011;58975;51.978;8.472;2024-03-17T21:22:32;9.45;;;5.85;;
4857;SDS011;58975;51.978;8.472;2024-03-17T21:27:29;11.13;;;6.07;;
4857;SDS011;58975;51.978;8.472;2024-03-17T21:32:25;9.25;;;5.43;;
4857;SDS011;58975;51.978;8.472;2024-03-17T21:37:26;12.73;;;5.93;;
4857;SDS011;58975;51.978;8.472;2024-03-17T21:47:21;7.28;;;4.82;;
4857;SDS011;58975;51.978;8.472;2024-03-17T21:52:17;7.00;;;5.15;;
4857;SDS011;58975;51.978;8.472;2024-03-17T21:57:12;8.82;;;5.20;;
4857;SDS011;58975;51.978;8.472;2024-03-17T22:02:08;7.22;;;4.72;;
4857;SDS011;58975;51.978;8.472;2024-03-17T22:07:04;9.90;;;5.10;;
4857;SDS011;58975;51.978;8.472;2024-03-17T22:11:59;14.85;;;5.03;;
4857;SDS011;58975;51.978;8.472;2024-03-17T22:16:55;9.32;;;5.38;;
4857;SDS011;58975;51.978;8.472;2024-03-17T22:21:50;9.32;;;4.45;;
4857;SDS011;58975;51.978;8.472;2024-03-17T22:26:46;10.88;;;4.72;;
4857;SDS011;58975;51.978;8.472;2024-03-17T22:31:41;6.75;;;4.40;;
4857;SDS011;58975;51.978;8.472;2024-03-17T22:36:37;7.68;;;4.32;;
4857;SDS011;58975;51.978;8.472;2024-03-17T22:41:32;7.03;;;4.32;;
4857;SDS011;58975;51.978;8.472;2024-03-17T22:46:28;10.13;;;4.20;;
4857;SDS011;58975;51.978;8.472;2024-03-17T22:51:24;6.35;;;4.90;;
4857;SDS011;58975;51.978;8.472;2024-03-17T22:56:19;8.38;;;3.97;;
4857;SDS011;58975;51.978;8.472;2024-03-17T23:01:15;6.25;;;4.05;;
4857;SDS011;58975;51.978;8.472;2024-03-17T23:06:11;7.57;;;4.00;;
4857;SDS011;58975;51.978;8.472;2024-03-17T23:11:08;10.13;;;4.43;;
4857;SDS011;58975;51.978;8.472;2024-03-17T23:16:04;7.50;;;3.92;;
4857;SDS011;58975;51.978;8.472;2024-03-17T23:21:00;7.45;;;3.88;;
4857;SDS011;58975;51.978;8.472;2024-03-17T23:25:55;5.90;;;3.80;;
4857;SDS011;58975;51.978;8.472;2024-03-17T23:30:51;8.02;;;3.72;;
4857;SDS011;58975;51.978;8.472;2024-03-17T23:35:47;5.45;;;3.67;;
4857;SDS011;58975;51.978;8.472;2024-03-17T23:40:46;6.05;;;4.10;;
4857;SDS011;58975;51.978;8.472;2024-03-17T23:45:42;5.70;;;3.78;;
4857;SDS011;58975;51.978;8.472;2024-03-17T23:50:37;6.07;;;4.25;;
4857;SDS011;58975;51.978;8.472;2024-03-17T23:55:34;9.70;;;4.15;;
